Time;durP1;ratioP1;P1;durP2;ratioP2;P2;SDS_P1;SDS_P2;PMS_P1;PMS_P2;Temp;Humidity;BMP_temperature;BMP_pressure;BME280_temperature;BME280_humidity;BME280_pressure;Samples;Min_cycle;Max_cycle;Signal;HPM_P1;HPM_P2
2021/11/23 00:01:49;;;;;;;5.10;2.97;;;6.20;79.50;;;;;;5110296;28;20072;-81
2021/11/23 00:04:15;;;;;;;4.43;3.33;;;6.20;79.50;;;;;;5110628;28;20028;-82
2021/11/23 00:06:40;;;;;;;5.75;3.05;;;6.20;79.50;;;;;;5110053;28;20020;-81
2021/11/23 00:09:06;;;;;;;5.43;3.28;;;6.10;79.40;;;;;;5113547;28;20141;-81
2021/11/23 00:11:31;;;;;;;4.78;3.38;;;6.10;79.40;;;;;;5114541;28;20020;-82
2021/11/23 00:13:57;;;;;;;5.18;3.10;;;6.10;79.50;;;;;;5113883;28;20031;-82
2021/11/23 00:16:23;;;;;;;4.22;2.83;;;6.00;79.50;;;;;;5113631;28;20131;-82
2021/11/23 00:18:49;;;;;;;5.65;3.25;;;6.00;79.60;;;;;;5113151;28;20020;-83
2021/11/23 00:21:15;;;;;;;5.03;3.13;;;6.00;79.60;;;;;;5114011;28;20119;-83
2021/11/23 00:23:42;;;;;;;5.15;3.38;;;6.00;79.50;;;;;;5114145;28;20027;-82
2021/11/23 00:26:07;;;;;;;3.53;3.08;;;6.00;79.60;;;;;;5113926;28;20023;-82
2021/11/23 00:28:33;;;;;;;6.32;3.35;;;6.00;79.60;;;;;;5111065;28;20047;-82
2021/11/23 00:30:58;;;;;;;5.82;3.42;;;5.90;79.60;;;;;;5112533;28;20020;-82
2021/11/23 00:33:25;;;;;;;5.88;3.25;;;5.90;79.60;;;;;;5113279;28;20027;-82
2021/11/23 00:35:51;;;;;;;5.35;3.25;;;6.00;79.70;;;;;;5111905;28;20064;-82
2021/11/23 00:38:17;;;;;;;4.93;3.28;;;5.90;79.70;;;;;;5111530;28;20023;-82
2021/11/23 00:40:43;;;;;;;4.63;3.08;;;5.90;79.70;;;;;;5113420;28;20046;-82
2021/11/23 00:43:09;;;;;;;5.07;3.10;;;5.90;79.70;;;;;;5112191;28;20068;-82
2021/11/23 00:45:36;;;;;;;5.15;2.67;;;6.00;79.80;;;;;;5113703;28;20031;-82
2021/11/23 00:48:03;;;;;;;5.75;2.95;;;6.00;79.70;;;;;;5112683;28;20074;-82
2021/11/23 00:50:30;;;;;;;5.68;2.58;;;6.00;79.70;;;;;;5113125;28;20485;-83
2021/11/23 00:52:56;;;;;;;4.65;2.25;;;6.00;79.90;;;;;;5113106;27;20458;-84
2021/11/23 00:55:22;;;;;;;4.10;2.35;;;6.10;80.60;;;;;;5113317;28;20034;-84
2021/11/23 00:57:47;;;;;;;6.38;2.45;;;6.20;80.10;;;;;;5113414;28;20157;-84
2021/11/23 01:00:14;;;;;;;6.40;2.60;;;6.20;80.20;;;;;;5112720;28;20126;-84
2021/11/23 01:02:41;;;;;;;6.97;2.60;;;6.20;80.20;;;;;;5111846;28;20027;-83
2021/11/23 01:05:07;;;;;;;6.65;2.40;;;6.30;80.20;;;;;;5113049;28;20150;-83
2021/11/23 01:07:33;;;;;;;4.35;2.40;;;6.30;80.20;;;;;;5111928;28;20076;-83
2021/11/23 01:09:59;;;;;;;3.53;2.40;;;6.30;80.20;;;;;;5111246;28;20023;-83
2021/11/23 01:12:25;;;;;;;4.40;2.20;;;6.40;80.30;;;;;;5112556;28;20027;-84
2021/11/23 01:14:50;;;;;;;3.78;2.28;;;6.40;80.30;;;;;;5112905;28;20382;-84
2021/11/23 01:17:17;;;;;;;4.80;2.20;;;6.40;80.40;;;;;;5112604;28;20385;-84
2021/11/23 01:19:43;;;;;;;4.75;2.00;;;6.50;80.40;;;;;;5112217;28;20529;-84
2021/11/23 01:22:09;;;;;;;4.15;2.28;;;6.60;80.40;;;;;;5113205;28;20359;-84
2021/11/23 01:24:34;;;;;;;4.05;2.22;;;6.60;80.40;;;;;;5111178;28;20007;-84
2021/11/23 01:27:00;;;;;;;4.03;2.17;;;6.60;80.40;;;;;;5113454;28;20458;-84
2021/11/23 01:29:26;;;;;;;5.00;2.15;;;6.60;80.50;;;;;;5111739;28;20016;-84
2021/11/23 01:31:51;;;;;;;2.78;2.08;;;6.60;80.50;;;;;;5112528;28;20121;-84
2021/11/23 01:34:19;;;;;;;5.93;2.33;;;6.70;80.40;;;;;;5112304;28;20182;-84
2021/11/23 01:36:46;;;;;;;2.80;2.08;;;6.70;80.50;;;;;;5111541;28;20027;-83
2021/11/23 01:39:12;;;;;;;2.40;1.92;;;6.70;80.50;;;;;;5110635;28;20393;-84
2021/11/23 01:41:37;;;;;;;3.25;1.77;;;6.70;80.60;;;;;;5111080;28;20032;-84
2021/11/23 01:44:03;;;;;;;4.70;2.17;;;6.80;80.60;;;;;;5112024;28;20076;-81
2021/11/23 01:46:29;;;;;;;4.38;1.92;;;6.80;80.60;;;;;;5112512;28;20031;-81
2021/11/23 01:48:54;;;;;;;5.95;2.00;;;6.80;80.60;;;;;;5111346;28;20051;-81
2021/11/23 01:51:20;;;;;;;2.88;1.80;;;6.90;80.60;;;;;;5111855;28;20066;-81
2021/11/23 01:53:49;;;;;;;2.63;1.85;;;6.90;80.60;;;;;;5110876;28;20062;-81
2021/11/23 01:56:15;;;;;;;3.05;1.80;;;6.90;80.70;;;;;;5112240;28;20293;-81
2021/11/23 01:58:40;;;;;;;3.97;1.92;;;7.00;80.60;;;;;;5111868;28;20024;-81
2021/11/23 02:01:07;;;;;;;4.00;2.10;;;6.90;80.60;;;;;;5111778;28;20638;-81
2021/11/23 02:03:38;;;;;;;4.40;2.13;;;6.90;80.70;;;;;;5111717;28;20031;-81
2021/11/23 02:06:04;;;;;;;3.47;2.08;;;6.90;80.80;;;;;;5108292;28;20784;-81
2021/11/23 02:08:30;;;;;;;4.18;2.50;;;6.90;80.90;;;;;;5109884;28;20484;-81
2021/11/23 02:10:56;;;;;;;6.13;2.40;;;6.90;81.00;;;;;;5111688;28;20032;-83
2021/11/23 02:13:22;;;;;;;6.07;2.20;;;6.90;81.10;;;;;;5110127;28;20076;-83
2021/11/23 02:15:48;;;;;;;3.97;2.20;;;6.90;81.10;;;;;;5111609;28;20019;-83
2021/11/23 02:18:18;;;;;;;5.88;2.17;;;7.00;81.20;;;;;;5109463;28;20035;-83
2021/11/23 02:20:44;;;;;;;4.80;2.17;;;6.90;81.20;;;;;;5121229;27;20039;-83
2021/11/23 02:23:11;;;;;;;4.88;2.33;;;7.00;81.20;;;;;;5110740;28;20027;-82
2021/11/23 02:25:37;;;;;;;4.13;2.10;;;7.00;81.20;;;;;;5110193;28;20460;-82
2021/11/23 02:28:07;;;;;;;3.45;2.13;;;7.00;81.20;;;;;;5110275;28;20016;-82
2021/11/23 02:30:35;;;;;;;3.38;2.10;;;7.00;81.20;;;;;;5110545;28;20092;-83
2021/11/23 02:33:01;;;;;;;3.72;2.20;;;7.00;81.20;;;;;;5111342;28;20027;-82
2021/11/23 02:35:27;;;;;;;2.75;1.88;;;7.00;81.20;;;;;;5111342;28;20035;-82
2021/11/23 02:37:55;;;;;;;4.63;2.15;;;7.00;81.20;;;;;;5109972;28;20019;-82
2021/11/23 02:40:22;;;;;;;4.05;2.10;;;7.00;81.30;;;;;;5109333;28;20561;-83
2021/11/23 02:42:48;;;;;;;3.28;2.20;;;7.10;81.30;;;;;;5111145;28;20094;-82
2021/11/23 02:45:17;;;;;;;3.90;1.88;;;7.10;81.30;;;;;;5111188;28;20510;-82
2021/11/23 02:47:43;;;;;;;2.00;1.80;;;7.10;81.40;;;;;;5111149;28;20454;-82
2021/11/23 02:50:11;;;;;;;3.50;1.85;;;7.10;81.40;;;;;;5109572;28;20023;-81
2021/11/23 02:52:37;;;;;;;5.25;1.95;;;7.20;81.50;;;;;;5110917;28;20561;-82
2021/11/23 02:55:04;;;;;;;3.80;2.00;;;7.20;81.50;;;;;;5109699;28;20110;-82
2021/11/23 02:57:32;;;;;;;4.38;2.05;;;7.20;81.60;;;;;;5110829;28;20080;-82
2021/11/23 02:59:59;;;;;;;2.60;2.00;;;7.20;81.70;;;;;;5109925;28;20028;-81
2021/11/23 03:02:25;;;;;;;3.47;2.10;;;7.20;81.70;;;;;;5109850;28;20493;-81
2021/11/23 03:04:56;;;;;;;7.00;2.30;;;7.30;81.70;;;;;;5110843;28;20532;-82
2021/11/23 03:07:23;;;;;;;4.80;2.50;;;7.20;81.70;;;;;;5111165;28;20508;-81
2021/11/23 03:09:49;;;;;;;4.03;2.22;;;7.20;82.40;;;;;;5110083;28;20073;-81
2021/11/23 03:12:16;;;;;;;4.07;2.30;;;7.30;81.90;;;;;;5110971;28;20027;-81
2021/11/23 03:14:43;;;;;;;4.57;2.50;;;7.30;81.90;;;;;;5110761;28;20470;-81
2021/11/23 03:17:09;;;;;;;6.43;2.47;;;7.30;81.90;;;;;;5111092;28;20028;-81
2021/11/23 03:19:35;;;;;;;4.40;2.17;;;7.30;81.90;;;;;;5110409;28;20024;-81
2021/11/23 03:22:02;;;;;;;4.68;2.22;;;7.30;82.00;;;;;;5111235;28;20031;-82
2021/11/23 03:24:28;;;;;;;3.03;2.17;;;7.30;82.00;;;;;;5111156;28;20019;-82
2021/11/23 03:26:54;;;;;;;6.22;2.80;;;7.30;82.00;;;;;;5108822;28;20028;-82
2021/11/23 03:29:19;;;;;;;5.20;2.30;;;7.30;82.10;;;;;;5108740;28;20061;-82
2021/11/23 03:31:45;;;;;;;4.13;1.98;;;7.30;82.10;;;;;;5110913;28;20023;-82
2021/11/23 03:34:11;;;;;;;4.82;1.98;;;7.30;82.10;;;;;;5109057;28;20022;-82
2021/11/23 03:36:39;;;;;;;6.25;2.30;;;7.30;82.10;;;;;;5109711;28;20515;-82
2021/11/23 03:39:06;;;;;;;3.83;2.00;;;7.30;82.10;;;;;;5109182;28;20501;-82
2021/11/23 03:41:32;;;;;;;4.30;2.10;;;7.30;82.20;;;;;;5110779;28;20045;-82
2021/11/23 03:43:57;;;;;;;4.50;2.30;;;7.30;82.10;;;;;;5114432;28;20338;-82
2021/11/23 03:46:23;;;;;;;3.50;2.15;;;7.40;82.20;;;;;;5114666;28;20020;-82
2021/11/23 03:48:48;;;;;;;3.83;2.30;;;7.40;82.20;;;;;;5114208;28;20488;-82
2021/11/23 03:51:14;;;;;;;3.67;1.80;;;7.40;82.30;;;;;;5114096;28;20055;-82
2021/11/23 03:53:39;;;;;;;6.10;2.10;;;7.40;82.30;;;;;;5114582;28;20024;-82
2021/11/23 03:56:06;;;;;;;4.47;2.22;;;7.40;82.30;;;;;;5113374;28;20496;-82
2021/11/23 03:58:31;;;;;;;5.50;2.30;;;7.40;82.40;;;;;;5111678;28;20015;-82
2021/11/23 04:00:57;;;;;;;3.67;1.95;;;7.40;82.50;;;;;;5112597;28;20050;-82
2021/11/23 04:03:22;;;;;;;4.75;2.22;;;7.50;82.50;;;;;;5114714;28;20414;-82
2021/11/23 04:05:48;;;;;;;2.67;1.90;;;7.40;82.50;;;;;;5114173;28;20099;-82
2021/11/23 04:08:13;;;;;;;3.70;2.03;;;7.50;82.60;;;;;;5113331;28;20118;-82
2021/11/23 04:10:39;;;;;;;4.90;2.40;;;7.50;82.60;;;;;;5114143;28;20030;-82
2021/11/23 04:13:04;;;;;;;3.38;1.92;;;7.50;82.50;;;;;;5104095;28;20020;-82
2021/11/23 04:15:30;;;;;;;5.20;2.42;;;7.50;82.50;;;;;;5112790;28;20019;-84
2021/11/23 04:17:56;;;;;;;2.92;1.90;;;7.60;82.60;;;;;;5112170;28;20032;-84
2021/11/23 04:20:21;;;;;;;3.13;1.95;;;7.60;82.70;;;;;;5113855;28;20061;-84
2021/11/23 04:22:47;;;;;;;4.93;2.00;;;7.60;82.70;;;;;;5113960;28;20385;-84
2021/11/23 04:25:13;;;;;;;5.35;2.13;;;7.60;82.60;;;;;;5113803;28;20063;-84
2021/11/23 04:27:39;;;;;;;5.03;2.28;;;7.60;82.60;;;;;;5113629;28;20028;-83
2021/11/23 04:30:07;;;;;;;6.55;2.40;;;7.60;82.60;;;;;;5111303;28;20521;-82
2021/11/23 04:32:33;;;;;;;3.80;2.50;;;7.70;82.70;;;;;;5113880;28;20142;-82
2021/11/23 04:34:58;;;;;;;6.07;2.58;;;7.70;82.70;;;;;;5112603;28;20102;-80
2021/11/23 04:37:24;;;;;;;4.28;2.45;;;7.70;82.70;;;;;;5112503;28;20036;-79
2021/11/23 04:39:52;;;;;;;4.30;2.00;;;7.70;82.80;;;;;;5111943;28;20023;-80
2021/11/23 04:42:17;;;;;;;4.93;2.13;;;7.70;82.80;;;;;;5112242;28;20031;-81
2021/11/23 04:44:43;;;;;;;4.63;2.20;;;7.80;82.90;;;;;;5113638;28;20034;-80
2021/11/23 04:47:08;;;;;;;4.82;2.13;;;7.80;82.90;;;;;;5113403;27;20370;-81
2021/11/23 04:49:34;;;;;;;5.15;1.98;;;7.80;82.90;;;;;;5111734;28;20377;-81
2021/11/23 04:52:00;;;;;;;4.15;2.00;;;7.80;82.90;;;;;;5112103;28;20016;-81
2021/11/23 04:54:25;;;;;;;5.70;2.20;;;7.90;83.00;;;;;;5113113;28;20051;-82
2021/11/23 04:56:51;;;;;;;4.43;2.00;;;7.90;83.00;;;;;;5112140;28;20470;-81
2021/11/23 04:59:16;;;;;;;4.80;2.08;;;7.90;83.00;;;;;;5112321;28;20554;-82
2021/11/23 05:01:42;;;;;;;3.28;1.92;;;7.90;83.10;;;;;;5112041;28;20501;-81
2021/11/23 05:04:07;;;;;;;4.00;2.15;;;7.90;83.00;;;;;;5112670;28;20027;-80
2021/11/23 05:06:33;;;;;;;2.83;2.13;;;8.00;83.10;;;;;;5113514;28;20065;-81
2021/11/23 05:08:58;;;;;;;4.22;2.05;;;8.00;83.10;;;;;;5112544;28;20023;-80
2021/11/23 05:11:28;;;;;;;4.53;2.00;;;8.00;83.10;;;;;;5112880;28;20028;-82
2021/11/23 05:13:53;;;;;;;3.08;2.10;;;8.00;83.20;;;;;;5111449;28;20024;-82
2021/11/23 05:16:19;;;;;;;3.33;2.17;;;8.00;83.10;;;;;;5111583;28;20027;-80
2021/11/23 05:18:45;;;;;;;3.20;2.10;;;8.00;83.20;;;;;;5112905;28;20023;-81
2021/11/23 05:21:11;;;;;;;4.57;2.28;;;8.00;83.20;;;;;;5112693;28;20067;-80
2021/11/23 05:23:37;;;;;;;4.38;2.10;;;8.00;83.20;;;;;;5111255;28;20059;-81
2021/11/23 05:26:03;;;;;;;2.78;1.80;;;8.00;83.20;;;;;;5113226;28;20043;-80
2021/11/23 05:28:28;;;;;;;3.25;2.10;;;8.00;83.20;;;;;;5112264;28;20151;-80
2021/11/23 05:30:54;;;;;;;2.58;2.00;;;8.00;83.30;;;;;;5111450;28;20027;-80
2021/11/23 05:33:20;;;;;;;3.58;1.80;;;8.10;83.30;;;;;;5112633;28;20031;-81
2021/11/23 05:35:49;;;;;;;4.05;2.13;;;8.10;83.40;;;;;;5112773;28;20016;-81
2021/11/23 05:38:19;;;;;;;2.38;1.83;;;8.10;83.50;;;;;;5112161;28;20031;-81
2021/11/23 05:40:46;;;;;;;3.28;2.13;;;8.10;83.50;;;;;;5111067;28;20397;-80
2021/11/23 05:43:13;;;;;;;2.40;2.17;;;8.10;83.50;;;;;;5111078;28;20015;-80
2021/11/23 05:45:39;;;;;;;3.72;2.10;;;8.20;83.60;;;;;;5107648;28;20032;-81
2021/11/23 05:48:05;;;;;;;5.57;2.10;;;8.20;83.60;;;;;;5111576;28;20023;-81
2021/11/23 05:50:31;;;;;;;4.38;1.70;;;8.20;83.50;;;;;;5112513;28;20031;-81
2021/11/23 05:52:57;;;;;;;3.92;2.30;;;8.20;83.60;;;;;;5112049;28;20027;-81
2021/11/23 05:55:22;;;;;;;2.70;1.98;;;8.20;83.50;;;;;;5112249;28;20059;-81
2021/11/23 05:57:48;;;;;;;4.22;2.30;;;8.20;83.60;;;;;;5112372;28;20023;-81
2021/11/23 06:00:13;;;;;;;4.07;2.33;;;8.30;83.60;;;;;;5110987;28;20028;-80
2021/11/23 06:02:39;;;;;;;4.80;2.58;;;8.30;84.20;;;;;;5112267;28;20056;-80
2021/11/23 06:05:06;;;;;;;3.85;2.30;;;8.30;83.70;;;;;;5111449;28;20027;-81
2021/11/23 06:07:32;;;;;;;3.50;2.50;;;8.30;83.70;;;;;;5111609;28;20023;-80
2021/11/23 06:09:57;;;;;;;4.47;2.28;;;8.30;83.70;;;;;;5111780;28;20516;-80
2021/11/23 06:12:26;;;;;;;4.68;2.60;;;8.30;83.80;;;;;;5112125;28;20682;-81
2021/11/23 06:14:52;;;;;;;4.93;2.78;;;8.30;83.80;;;;;;5110331;27;20029;-81
2021/11/23 06:17:18;;;;;;;3.45;2.40;;;8.30;83.80;;;;;;5111569;28;20024;-82
2021/11/23 06:19:43;;;;;;;5.30;2.63;;;8.30;83.80;;;;;;5110872;28;20154;-82
2021/11/23 06:22:09;;;;;;;6.13;3.17;;;8.30;83.90;;;;;;5111828;28;20036;-82
2021/11/23 06:24:36;;;;;;;6.45;3.28;;;8.30;83.90;;;;;;5111081;28;20047;-82
2021/11/23 06:27:02;;;;;;;4.32;2.65;;;8.30;84.00;;;;;;5111707;28;20024;-83
2021/11/23 06:29:27;;;;;;;4.47;2.80;;;8.30;84.10;;;;;;5110437;28;20430;-82
2021/11/23 06:31:53;;;;;;;5.25;3.00;;;8.30;84.10;;;;;;5111527;28;20104;-82
2021/11/23 06:34:19;;;;;;;6.75;3.03;;;8.30;84.10;;;;;;5111517;28;20032;-82
2021/11/23 06:36:44;;;;;;;4.45;2.67;;;8.30;84.10;;;;;;5111559;28;20020;-82
2021/11/23 06:39:10;;;;;;;6.30;2.95;;;8.30;84.20;;;;;;5111313;28;20455;-82
2021/11/23 06:41:35;;;;;;;4.47;2.70;;;8.30;84.30;;;;;;5106737;28;20034;-83
2021/11/23 06:44:03;;;;;;;4.40;2.90;;;8.30;84.30;;;;;;5110922;28;20440;-84
2021/11/23 06:46:29;;;;;;;4.10;2.75;;;8.30;84.30;;;;;;5108492;28;20027;-83
2021/11/23 06:48:55;;;;;;;6.00;3.10;;;8.30;84.40;;;;;;5111097;28;20050;-81
2021/11/23 06:51:21;;;;;;;5.65;2.70;;;8.30;85.10;;;;;;5111000;28;20047;-81
2021/11/23 06:53:47;;;;;;;6.03;2.95;;;8.30;84.50;;;;;;5108008;28;20527;-82
2021/11/23 06:56:12;;;;;;;4.25;2.97;;;8.30;84.50;;;;;;5111016;28;20114;-82
2021/11/23 06:58:38;;;;;;;8.40;3.30;;;8.30;84.50;;;;;;5108695;28;20034;-81
2021/11/23 07:01:04;;;;;;;5.40;3.10;;;8.30;84.60;;;;;;5106945;28;20032;-82
2021/11/23 07:03:29;;;;;;;5.15;2.90;;;8.40;84.60;;;;;;5101748;28;20020;-81
2021/11/23 07:05:54;;;;;;;4.00;2.70;;;8.40;84.70;;;;;;5106857;28;20024;-81
2021/11/23 07:08:20;;;;;;;5.20;2.85;;;8.40;84.70;;;;;;5106896;28;20041;-81
2021/11/23 07:10:46;;;;;;;5.80;3.38;;;8.40;84.70;;;;;;5106290;28;20062;-81
2021/11/23 07:13:11;;;;;;;5.03;3.05;;;8.40;84.70;;;;;;5108439;28;20023;-81
2021/11/23 07:15:37;;;;;;;7.07;3.00;;;8.40;84.70;;;;;;5109916;28;20130;-82
2021/11/23 07:18:03;;;;;;;5.40;3.08;;;8.40;84.70;;;;;;5112533;28;20023;-82
2021/11/23 07:20:28;;;;;;;5.25;3.33;;;8.40;84.70;;;;;;5114180;28;20024;-82
2021/11/23 07:22:54;;;;;;;4.53;3.15;;;8.40;84.70;;;;;;5115035;28;20023;-82
2021/11/23 07:25:20;;;;;;;6.97;3.28;;;8.40;84.80;;;;;;5111180;28;20032;-81
2021/11/23 07:27:46;;;;;;;5.97;3.30;;;8.40;84.70;;;;;;5115005;28;20020;-82
2021/11/23 07:30:12;;;;;;;4.07;2.80;;;8.40;84.80;;;;;;5112487;28;20020;-82
2021/11/23 07:32:38;;;;;;;5.45;3.20;;;8.40;84.60;;;;;;5105037;28;20032;-83
2021/11/23 07:35:04;;;;;;;6.15;3.25;;;8.40;84.60;;;;;;5112639;28;20334;-83
2021/11/23 07:37:36;;;;;;;4.50;3.00;;;8.40;84.60;;;;;;5108890;28;20027;-81
2021/11/23 07:40:03;;;;;;;5.20;3.10;;;8.50;84.70;;;;;;5106935;28;20016;-80
2021/11/23 07:42:29;;;;;;;4.60;3.50;;;8.50;84.70;;;;;;5111848;28;20042;-79
2021/11/23 07:44:54;;;;;;;4.25;3.17;;;8.50;84.60;;;;;;5112518;28;20015;-79
2021/11/23 07:47:20;;;;;;;3.70;2.90;;;8.50;84.70;;;;;;5111658;28;20028;-82
2021/11/23 07:49:45;;;;;;;4.38;2.88;;;8.50;84.70;;;;;;5110493;28;20032;-82
2021/11/23 07:52:15;;;;;;;4.70;3.00;;;8.50;84.60;;;;;;5111136;28;20110;-82
2021/11/23 07:54:40;;;;;;;3.13;2.60;;;8.50;84.70;;;;;;5113535;28;20024;-79
2021/11/23 07:57:06;;;;;;;2.92;2.63;;;8.50;84.70;;;;;;5114610;28;20080;-81
2021/11/23 07:59:31;;;;;;;3.10;2.67;;;8.60;84.80;;;;;;5111206;28;20114;-79
2021/11/23 08:01:57;;;;;;;3.83;2.70;;;8.60;84.80;;;;;;5111593;28;20442;-79
2021/11/23 08:04:22;;;;;;;2.85;2.60;;;8.60;84.70;;;;;;5113724;28;20024;-79
2021/11/23 08:06:48;;;;;;;3.10;2.70;;;8.60;84.80;;;;;;5113055;28;20015;-80
2021/11/23 08:09:14;;;;;;;2.78;2.38;;;8.60;84.70;;;;;;5110715;28;20386;-79
2021/11/23 08:11:39;;;;;;;3.35;2.80;;;8.70;84.80;;;;;;5114252;28;20064;-91
2021/11/23 08:14:05;;;;;;;3.10;2.80;;;8.70;84.80;;;;;;5115417;28;20072;-90
2021/11/23 08:16:30;;;;;;;3.30;2.53;;;8.70;84.80;;;;;;5115517;28;20084;-88
2021/11/23 08:18:56;;;;;;;2.67;2.47;;;8.80;84.80;;;;;;5116834;28;20089;-91
2021/11/23 08:21:23;;;;;;;3.17;2.70;;;8.80;84.80;;;;;;5117286;28;20075;-91
2021/11/23 08:23:48;;;;;;;3.45;2.47;;;8.80;85.40;;;;;;5116217;28;20404;-90
2021/11/23 08:26:14;;;;;;;2.97;2.45;;;8.90;84.80;;;;;;5116339;28;20106;-89
2021/11/23 08:28:40;;;;;;;3.15;2.50;;;8.90;84.80;;;;;;5106148;28;20055;-90
2021/11/23 08:31:05;;;;;;;2.90;2.58;;;8.90;84.80;;;;;;5108506;28;20419;-91
2021/11/23 08:33:31;;;;;;;2.78;2.50;;;8.90;84.80;;;;;;5114050;28;20520;-90
2021/11/23 08:35:57;;;;;;;10.60;2.63;;;8.90;84.90;;;;;;5111085;28;20040;-91
2021/11/23 08:38:22;;;;;;;3.45;2.33;;;9.00;84.90;;;;;;5112600;28;20023;-91
2021/11/23 08:40:48;;;;;;;3.03;2.50;;;9.00;84.90;;;;;;5112345;28;20409;-93
2021/11/23 08:43:14;;;;;;;7.20;2.60;;;9.00;84.90;;;;;;5113922;28;20023;-91
2021/11/23 08:45:41;;;;;;;6.90;2.88;;;9.00;84.90;;;;;;5114127;28;20466;-92
2021/11/23 08:48:06;;;;;;;3.65;2.25;;;8.90;85.00;;;;;;5111335;28;20012;-92
2021/11/23 08:50:32;;;;;;;12.45;2.80;;;9.00;85.10;;;;;;5112125;28;20480;-91
2021/11/23 08:52:58;;;;;;;3.83;2.80;;;9.00;85.10;;;;;;5108324;28;20039;-90
2021/11/23 08:55:26;;;;;;;8.43;2.50;;;9.00;85.20;;;;;;5112856;28;20481;-90
2021/11/23 08:57:53;;;;;;;12.02;2.72;;;9.00;85.30;;;;;;5112619;28;20031;-93
2021/11/23 09:00:20;;;;;;;8.85;2.38;;;9.00;85.30;;;;;;5106955;28;20118;-94
2021/11/23 09:02:49;;;;;;;12.85;2.72;;;9.00;85.30;;;;;;5105277;28;20355;-93
2021/11/23 09:05:17;;;;;;;8.77;2.55;;;9.10;85.40;;;;;;5107610;28;20397;-93
2021/11/23 09:07:43;;;;;;;3.67;2.45;;;9.10;85.40;;;;;;5110238;28;20020;-93
2021/11/23 09:10:15;;;;;;;3.10;2.70;;;9.10;85.40;;;;;;5107471;28;20031;-92
2021/11/23 09:12:41;;;;;;;;;;;9.20;85.40;;;;;;5107309;28;20020;-93
2021/11/23 09:15:07;;;;;;;4.85;2.90;;;9.20;85.30;;;;;;5113528;28;19966;-94
2021/11/23 09:17:32;;;;;;;3.55;2.92;;;9.20;85.30;;;;;;5111883;28;20047;-93
2021/11/23 09:19:58;;;;;;;4.95;2.58;;;9.20;85.40;;;;;;5108789;28;20103;-93
2021/11/23 09:22:24;;;;;;;5.90;2.78;;;9.30;85.50;;;;;;5104977;28;20084;-92
2021/11/23 09:24:49;;;;;;;4.43;2.58;;;9.30;85.50;;;;;;5107381;28;20085;-93
2021/11/23 09:27:15;;;;;;;6.70;2.80;;;9.40;85.60;;;;;;5108468;28;20042;-93
2021/11/23 09:29:42;;;;;;;4.05;3.00;;;9.40;85.50;;;;;;5108948;28;20017;-93
2021/11/23 09:32:08;;;;;;;8.07;3.20;;;9.50;85.50;;;;;;5106905;28;20024;-93
2021/11/23 09:34:34;;;;;;;4.55;3.15;;;9.60;85.60;;;;;;5116916;27;20034;-93
2021/11/23 09:37:00;;;;;;;5.93;2.85;;;9.60;85.50;;;;;;5106435;28;20011;-92
2021/11/23 09:39:26;;;;;;;5.50;2.90;;;9.70;85.60;;;;;;5106826;28;20462;-93
2021/11/23 09:41:52;;;;;;;5.07;3.00;;;9.70;85.50;;;;;;5107843;28;20074;-93
2021/11/23 09:44:18;;;;;;;4.45;2.70;;;9.70;85.50;;;;;;5108434;28;20123;-93
2021/11/23 09:46:43;;;;;;;4.55;3.17;;;9.80;85.60;;;;;;5107673;28;20058;-93
2021/11/23 09:49:09;;;;;;;10.43;2.63;;;9.80;85.60;;;;;;5107726;28;20206;-91
2021/11/23 09:51:37;;;;;;;7.88;2.83;;;9.80;85.60;;;;;;5108144;28;20016;-93
2021/11/23 09:54:06;;;;;;;7.05;2.65;;;9.80;85.60;;;;;;5101289;28;20027;-93
2021/11/23 09:56:32;;;;;;;8.02;2.55;;;9.80;85.70;;;;;;5102931;28;20054;-92
2021/11/23 09:58:58;;;;;;;7.65;3.40;;;9.80;85.90;;;;;;5107665;28;20034;-92
2021/11/23 10:01:28;;;;;;;6.68;2.58;;;9.80;85.80;;;;;;5102628;28;20032;-93
2021/11/23 10:03:55;;;;;;;14.40;3.20;;;9.80;85.90;;;;;;5109611;28;20016;-93
2021/11/23 10:06:23;;;;;;;8.30;2.90;;;9.80;85.90;;;;;;5109850;28;20477;-91
2021/11/23 10:08:51;;;;;;;10.90;3.38;;;9.80;86.00;;;;;;5107718;28;20367;-95
2021/11/23 10:11:29;;;;;;;9.07;3.22;;;9.80;86.10;;;;;;5114492;28;20023;-92
2021/11/23 10:14:01;;;;;;;12.93;3.42;;;9.80;86.20;;;;;;5114659;28;20019;-95
2021/11/23 10:16:44;;;;;;;16.43;2.63;;;9.80;86.20;;;;;;5116817;28;20020;-95
2021/11/23 10:19:11;;;;;;;;;;;9.80;86.30;;;;;;5125652;28;20295;-94
2021/11/23 10:21:50;;;;;;;13.90;2.95;;;9.80;86.20;;;;;;5118402;28;20374;-95
2021/11/23 10:24:18;;;;;;;8.13;2.92;;;9.80;86.30;;;;;;5114018;28;20035;-96
2021/11/23 10:26:44;;;;;;;13.43;2.95;;;9.70;86.30;;;;;;5119524;28;20031;-96
2021/11/23 10:29:10;;;;;;;23.00;3.83;;;9.80;86.30;;;;;;5122697;28;20030;-96
2021/11/23 10:31:43;;;;;;;8.18;2.65;;;9.80;86.30;;;;;;5126109;28;20023;-96
2021/11/23 10:34:14;;;;;;;17.02;3.28;;;9.80;86.40;;;;;;5118820;28;20027;-96
2021/11/23 10:36:43;;;;;;;6.70;2.78;;;9.90;86.40;;;;;;5124480;28;20051;-96
2021/11/23 10:39:12;;;;;;;7.60;3.00;;;9.90;86.50;;;;;;5127996;28;20126;-96
2021/11/23 10:41:38;;;;;;;4.22;2.90;;;9.90;86.40;;;;;;5130914;28;20046;-96
2021/11/23 10:44:24;;;;;;;6.05;2.80;;;10.00;86.40;;;;;;5132470;28;20018;-96
2021/11/23 10:47:02;;;;;;;4.28;2.83;;;10.00;86.40;;;;;;5127972;28;20012;-96
2021/11/23 10:49:33;;;;;;;3.45;2.63;;;10.00;86.30;;;;;;5135036;28;20501;-96
2021/11/23 10:52:00;;;;;;;3.33;2.67;;;10.10;86.30;;;;;;5122348;28;20083;-94
2021/11/23 10:54:33;;;;;;;3.45;2.55;;;10.10;86.30;;;;;;5114266;28;20024;-93
2021/11/23 10:57:09;;;;;;;3.53;2.60;;;10.20;86.30;;;;;;5109287;28;20015;-87
2021/11/23 10:59:38;;;;;;;5.13;3.10;;;10.20;86.20;;;;;;5108497;28;20092;-88
2021/11/23 11:02:06;;;;;;;4.03;2.90;;;10.30;86.20;;;;;;5107783;28;20039;-89
2021/11/23 11:04:39;;;;;;;3.65;2.60;;;10.30;86.20;;;;;;5104027;28;20301;-86
2021/11/23 11:07:05;;;;;;;3.22;2.67;;;10.30;86.20;;;;;;5102078;28;20363;-89
2021/11/23 11:09:32;;;;;;;5.65;2.80;;;10.30;86.10;;;;;;5106971;28;20026;-92
2021/11/23 11:11:58;;;;;;;4.90;2.85;;;10.30;86.10;;;;;;5107446;28;20043;-87
2021/11/23 11:17:46;;;;;;;3.50;2.40;;;10.40;86.30;;;;;;5258758;22;20052;-87
2021/11/23 11:20:30;;;;;;;4.60;2.60;;;10.40;86.20;;;;;;5048543;28;20028;-87
2021/11/23 11:23:07;;;;;;;4.63;2.60;;;10.40;86.20;;;;;;5043230;28;20559;-88
2021/11/23 11:28:48;;;;;;;4.90;2.40;;;10.50;86.20;;;;;;5046908;28;20033;-88
2021/11/23 11:33:49;;;;;;;3.72;2.40;;;10.50;86.00;;;;;;5238068;22;20068;-91
2021/11/23 11:36:42;;;;;;;3.15;2.20;;;10.50;86.10;;;;;;5013841;28;20026;-89
2021/11/23 11:39:08;;;;;;;3.90;2.20;;;10.60;86.20;;;;;;5012377;28;20037;-92
2021/11/23 11:41:40;;;;;;;4.18;2.55;;;10.60;86.10;;;;;;5010119;28;20096;-92
2021/11/23 11:44:08;;;;;;;6.72;2.90;;;10.60;86.00;;;;;;5875324;22;20873;-89
2021/11/23 11:46:34;;;;;;;4.75;2.20;;;10.70;86.00;;;;;;4987788;28;20033;-88
2021/11/23 11:49:00;;;;;;;3.65;2.45;;;10.70;86.00;;;;;;4988477;28;20709;-88
2021/11/23 11:51:31;;;;;;;4.10;2.50;;;10.70;85.90;;;;;;4990387;28;20030;-89
2021/11/23 11:54:16;;;;;;;3.80;2.30;;;10.80;85.80;;;;;;4989742;28;20026;-88
2021/11/23 11:56:44;;;;;;;3.25;2.35;;;10.80;85.80;;;;;;4989204;28;20452;-89
2021/11/23 11:59:18;;;;;;;4.15;2.50;;;10.80;85.80;;;;;;4988860;28;20022;-89
2021/11/23 12:01:52;;;;;;;3.58;2.50;;;10.80;85.80;;;;;;4987117;28;20105;-89
2021/11/23 12:04:20;;;;;;;4.70;2.60;;;10.80;85.80;;;;;;4992406;28;20033;-89
2021/11/23 12:06:56;;;;;;;4.88;2.58;;;10.90;85.80;;;;;;4993573;28;20033;-89
2021/11/23 12:09:28;;;;;;;4.53;2.47;;;10.90;85.80;;;;;;4996795;28;20022;-89
2021/11/23 12:12:17;;;;;;;4.35;2.58;;;10.90;85.70;;;;;;4995500;28;20501;-89
2021/11/23 12:14:52;;;;;;;3.80;2.85;;;10.90;85.70;;;;;;5000968;28;20025;-89
2021/11/23 12:17:32;;;;;;;5.43;2.78;;;10.90;85.70;;;;;;5010913;28;20034;-87
2021/11/23 12:20:20;;;;;;;6.07;2.92;;;10.90;85.70;;;;;;4998335;28;20143;-88
2021/11/23 12:22:48;;;;;;;3.25;2.70;;;10.90;85.80;;;;;;5000741;28;20088;-87
2021/11/23 12:25:21;;;;;;;6.72;2.50;;;10.90;85.70;;;;;;4994225;28;20036;-87
2021/11/23 12:27:48;;;;;;;3.85;2.85;;;10.90;85.70;;;;;;4996104;28;20030;-88
2021/11/23 12:30:16;;;;;;;5.57;2.88;;;10.90;85.60;;;;;;5000681;28;20041;-88
2021/11/23 12:32:42;;;;;;;4.75;2.55;;;10.90;85.60;;;;;;5003178;28;20096;-89
2021/11/23 12:35:10;;;;;;;5.22;2.70;;;10.90;85.60;;;;;;5000053;28;20019;-88
2021/11/23 12:37:44;;;;;;;54.40;40.17;;;11.00;85.70;;;;;;4994229;28;20063;-89
2021/11/23 12:40:15;;;;;;;19.45;14.23;;;11.00;85.60;;;;;;4993146;28;20057;-91
2021/11/23 12:42:53;;;;;;;11.05;8.65;;;11.00;85.70;;;;;;4996551;28;20053;-93
2021/11/23 12:45:45;;;;;;;7.18;5.43;;;11.00;86.20;;;;;;4991047;28;20026;-94
2021/11/23 12:48:15;;;;;;;7.20;4.20;;;11.00;85.60;;;;;;4988457;28;20042;-92
2021/11/23 12:50:41;;;;;;;5.50;3.60;;;11.10;85.60;;;;;;4994412;28;20054;-92
2021/11/23 12:53:10;;;;;;;5.07;3.20;;;11.10;85.60;;;;;;4993952;28;20049;-92
2021/11/23 12:55:36;;;;;;;4.38;2.92;;;11.10;85.50;;;;;;4993014;28;20185;-93
2021/11/23 12:58:02;;;;;;;5.32;3.00;;;11.10;85.50;;;;;;4995591;28;20105;-92
2021/11/23 13:00:28;;;;;;;5.72;3.05;;;11.10;85.50;;;;;;4994740;28;20416;-94
2021/11/23 13:02:56;;;;;;;5.60;3.17;;;11.10;85.50;;;;;;4994890;28;20034;-92
2021/11/23 13:05:24;;;;;;;3.95;2.95;;;11.20;85.60;;;;;;4990395;28;20032;-92